Time,TemperatureF,DewpointF,PressureIn,WindDirection,WindDirectionDegrees,WindSpeedMPH,WindSpeedGustMPH,Humidity,HourlyPrecipIn,Conditions,Clouds,dailyrainin,SolarRadiationWatts/m^2,SoftwareType,DateUTC
2013-06-09 00:23:00,51.0,48.0,-100.00,ESE,108,19.0,28.0,91,0.00,,,0.00,0.000000,,2013-06-09 10:23:00,
2013-06-09 00:32:00,51.0,48.0,-100.00,ESE,108,19.0,28.0,91,0.00,,,0.00,0.000000,,2013-06-09 10:32:00,
2013-06-09 00:43:00,51.0,48.0,-100.00,ESE,108,19.0,28.0,91,0.00,,,0.00,0.000000,,2013-06-09 10:43:00,
2013-06-09 00:52:00,51.0,48.0,-100.00,ESE,108,19.0,28.0,91,0.00,,,0.00,0.000000,,2013-06-09 10:52:00,
2013-06-09 01:22:00,51.0,47.0,-100.00,East,98,16.0,24.0,85,0.00,,,0.00,0.000000,,2013-06-09 11:22:00,
2013-06-09 01:32:00,51.0,47.0,-100.00,East,98,16.0,24.0,85,0.00,,,0.00,0.000000,,2013-06-09 11:32:00,
2013-06-09 01:42:00,51.0,47.0,-100.00,East,98,16.0,24.0,85,0.00,,,0.00,0.000000,,2013-06-09 11:42:00,
2013-06-09 01:52:00,51.0,47.0,-100.00,East,98,16.0,24.0,85,0.00,,,0.00,0.000000,,2013-06-09 11:52:00,
2013-06-09 02:22:00,52.0,49.0,-100.00,ESE,106,13.0,24.0,90,0.00,,,0.00,0.000000,,2013-06-09 12:22:00,
2013-06-09 02:32:00,52.0,49.0,-100.00,ESE,106,13.0,24.0,90,0.00,,,0.00,0.000000,,2013-06-09 12:32:00,
2013-06-09 02:42:00,52.0,49.0,-100.00,ESE,106,13.0,24.0,90,0.00,,,0.00,0.000000,,2013-06-09 12:42:00,
2013-06-09 02:52:00,52.0,49.0,-100.00,ESE,106,13.0,24.0,90,0.00,,,0.00,0.000000,,2013-06-09 12:52:00,
2013-06-09 03:22:00,53.0,49.0,-100.00,ESE,114,16.0,23.0,85,0.00,,,0.00,0.000000,,2013-06-09 13:22:00,
2013-06-09 03:32:00,53.0,49.0,-100.00,ESE,114,16.0,23.0,85,0.00,,,0.00,0.000000,,2013-06-09 13:32:00,
2013-06-09 03:42:00,53.0,49.0,-100.00,ESE,114,16.0,23.0,85,0.00,,,0.00,0.000000,,2013-06-09 13:42:00,
2013-06-09 03:52:00,53.0,49.0,-100.00,ESE,114,16.0,23.0,85,0.00,,,0.00,0.000000,,2013-06-09 13:52:00,
2013-06-09 04:22:00,50.0,48.0,-100.00,ESE,108,16.0,25.0,94,0.00,,,0.00,0.000000,,2013-06-09 14:22:00,
2013-06-09 04:32:00,50.0,48.0,-100.00,ESE,108,16.0,25.0,94,0.00,,,0.00,0.000000,,2013-06-09 14:32:00,
2013-06-09 04:42:00,50.0,48.0,-100.00,ESE,108,16.0,25.0,94,0.00,,,0.00,0.000000,,2013-06-09 14:42:00,
2013-06-09 04:52:00,50.0,48.0,-100.00,ESE,108,16.0,25.0,94,0.00,,,0.00,0.000000,,2013-06-09 14:52:00,
2013-06-09 05:22:00,52.0,50.0,-100.00,ESE,109,16.0,24.0,93,0.00,,,0.00,0.000000,,2013-06-09 15:22:00,
2013-06-09 05:33:00,52.0,50.0,-100.00,ESE,109,16.0,24.0,93,0.00,,,0.00,0.000000,,2013-06-09 15:33:00,
2013-06-09 05:43:00,52.0,50.0,-100.00,ESE,109,16.0,24.0,93,0.00,,,0.00,0.000000,,2013-06-09 15:43:00,
2013-06-09 05:53:00,52.0,50.0,-100.00,ESE,109,16.0,24.0,93,0.00,,,0.00,0.000000,,2013-06-09 15:53:00,
2013-06-09 06:23:00,52.0,47.0,-100.00,ESE,112,9.0,24.0,83,0.00,,,0.00,1.000000,,2013-06-09 16:23:00,
2013-06-09 06:33:00,52.0,47.0,-100.00,ESE,112,9.0,24.0,83,0.00,,,0.00,1.000000,,2013-06-09 16:33:00,
2013-06-09 06:42:00,52.0,47.0,-100.00,ESE,112,9.0,24.0,83,0.00,,,0.00,1.000000,,2013-06-09 16:42:00,
2013-06-09 06:53:00,52.0,47.0,-100.00,ESE,112,9.0,24.0,83,0.00,,,0.00,1.000000,,2013-06-09 16:53:00,
2013-06-09 07:22:00,53.0,50.0,-100.00,East,101,11.0,15.0,89,0.00,,,0.00,81.000000,,2013-06-09 17:22:00,
2013-06-09 07:32:00,53.0,50.0,-100.00,East,101,11.0,15.0,89,0.00,,,0.00,81.000000,,2013-06-09 17:32:00,
2013-06-09 07:42:00,53.0,50.0,-100.00,East,101,11.0,15.0,89,0.00,,,0.00,81.000000,,2013-06-09 17:42:00,
2013-06-09 07:52:00,53.0,50.0,-100.00,East,101,11.0,15.0,89,0.00,,,0.00,81.000000,,2013-06-09 17:52:00,
2013-06-09 08:21:00,62.0,28.0,-100.00,ESE,112,15.0,22.0,27,0.00,,,0.00,314.000000,,2013-06-09 18:21:00,
2013-06-09 08:32:00,62.0,28.0,-100.00,ESE,112,15.0,22.0,27,0.00,,,0.00,314.000000,,2013-06-09 18:32:00,
2013-06-09 08:42:00,62.0,28.0,-100.00,ESE,112,15.0,22.0,27,0.00,,,0.00,314.000000,,2013-06-09 18:42:00,
2013-06-09 08:52:00,62.0,28.0,-100.00,ESE,112,15.0,22.0,27,0.00,,,0.00,314.000000,,2013-06-09 18:52:00,
2013-06-09 09:22:00,68.0,24.0,-100.00,ESE,104,16.0,24.0,19,0.00,,,0.00,740.000000,,2013-06-09 19:22:00,
2013-06-09 09:32:00,68.0,24.0,-100.00,ESE,104,16.0,24.0,19,0.00,,,0.00,740.000000,,2013-06-09 19:32:00,
2013-06-09 09:42:00,68.0,24.0,-100.00,ESE,104,16.0,24.0,19,0.00,,,0.00,740.000000,,2013-06-09 19:42:00,
2013-06-09 09:52:00,68.0,24.0,-100.00,ESE,104,16.0,24.0,19,0.00,,,0.00,740.000000,,2013-06-09 19:52:00,
2013-06-09 10:22:00,69.0,22.0,-100.00,East,99,14.0,23.0,17,0.00,,,0.00,995.000000,,2013-06-09 20:22:00,
2013-06-09 10:32:00,69.0,22.0,-100.00,East,99,14.0,23.0,17,0.00,,,0.00,995.000000,,2013-06-09 20:32:00,
2013-06-09 10:42:00,69.0,22.0,-100.00,East,99,14.0,23.0,17,0.00,,,0.00,995.000000,,2013-06-09 20:42:00,
2013-06-09 10:52:00,69.0,22.0,-100.00,East,99,14.0,23.0,17,0.00,,,0.00,995.000000,,2013-06-09 20:52:00,
2013-06-09 11:22:00,70.0,33.0,-100.00,East,99,12.0,22.0,25,0.00,,,0.00,1186.000000,,2013-06-09 21:22:00,
2013-06-09 11:33:00,70.0,33.0,-100.00,East,99,12.0,22.0,25,0.00,,,0.00,1186.000000,,2013-06-09 21:33:00,
2013-06-09 11:43:00,70.0,33.0,-100.00,East,99,12.0,22.0,25,0.00,,,0.00,1186.000000,,2013-06-09 21:43:00,
2013-06-09 11:53:00,70.0,33.0,-100.00,East,99,12.0,22.0,25,0.00,,,0.00,1186.000000,,2013-06-09 21:53:00,
2013-06-09 12:23:00,74.0,41.0,-100.00,NNW,346,4.0,20.0,31,0.00,,,0.00,1285.000000,,2013-06-09 22:23:00,
2013-06-09 12:33:00,74.0,41.0,-100.00,NNW,346,4.0,20.0,31,0.00,,,0.00,1285.000000,,2013-06-09 22:33:00,
2013-06-09 12:42:00,74.0,41.0,-100.00,NNW,346,4.0,20.0,31,0.00,,,0.00,1285.000000,,2013-06-09 22:42:00,
2013-06-09 12:52:00,74.0,41.0,-100.00,NNW,346,4.0,20.0,31,0.00,,,0.00,1285.000000,,2013-06-09 22:52:00,
2013-06-09 13:22:00,73.0,48.0,-100.00,ENE,57,7.0,19.0,41,0.00,,,0.00,1210.000000,,2013-06-09 23:22:00,
2013-06-09 13:32:00,73.0,48.0,-100.00,ENE,57,7.0,19.0,41,0.00,,,0.00,1210.000000,,2013-06-09 23:32:00,
2013-06-09 13:42:00,73.0,48.0,-100.00,ENE,57,7.0,19.0,41,0.00,,,0.00,1210.000000,,2013-06-09 23:42:00,
2013-06-09 13:52:00,73.0,48.0,-100.00,ENE,57,7.0,19.0,41,0.00,,,0.00,1210.000000,,2013-06-09 23:52:00,
2013-06-09 14:12:00,71.0,54.0,-100.00,WNW,298,11.0,20.0,54,0.00,,,0.00,922.000000,,2013-06-10 00:12:00,
2013-06-09 14:22:00,71.0,54.0,-100.00,WNW,298,11.0,20.0,54,0.00,,,0.00,922.000000,,2013-06-10 00:22:00,
2013-06-09 14:32:00,71.0,54.0,-100.00,WNW,298,11.0,20.0,54,0.00,,,0.00,922.000000,,2013-06-10 00:32:00,
2013-06-09 14:42:00,71.0,54.0,-100.00,WNW,298,11.0,20.0,54,0.00,,,0.00,922.000000,,2013-06-10 00:42:00,
2013-06-09 14:52:00,71.0,54.0,-100.00,WNW,298,11.0,20.0,54,0.00,,,0.00,922.000000,,2013-06-10 00:52:00,
2013-06-09 15:22:00,69.0,54.0,-100.00,WNW,287,11.0,22.0,59,0.00,,,0.00,965.000000,,2013-06-10 01:22:00,
2013-06-09 15:32:00,69.0,54.0,-100.00,WNW,287,11.0,22.0,59,0.00,,,0.00,965.000000,,2013-06-10 01:32:00,
2013-06-09 15:42:00,69.0,54.0,-100.00,WNW,287,11.0,22.0,59,0.00,,,0.00,965.000000,,2013-06-10 01:42:00,
2013-06-09 15:52:00,69.0,54.0,-100.00,WNW,287,11.0,22.0,59,0.00,,,0.00,965.000000,,2013-06-10 01:52:00,
2013-06-09 16:22:00,68.0,56.0,-100.00,NW,304,10.0,20.0,65,0.00,,,0.00,664.000000,,2013-06-10 02:22:00,
2013-06-09 16:32:00,68.0,56.0,-100.00,NW,304,10.0,20.0,65,0.00,,,0.00,664.000000,,2013-06-10 02:32:00,
2013-06-09 16:42:00,68.0,56.0,-100.00,NW,304,10.0,20.0,65,0.00,,,0.00,664.000000,,2013-06-10 02:42:00,
2013-06-09 16:52:00,68.0,56.0,-100.00,NW,304,10.0,20.0,65,0.00,,,0.00,664.000000,,2013-06-10 02:52:00,
2013-06-09 17:22:00,67.0,54.0,-100.00,WNW,299,7.0,14.0,62,0.00,,,0.00,487.000000,,2013-06-10 03:22:00,
2013-06-09 17:33:00,67.0,54.0,-100.00,WNW,299,7.0,14.0,62,0.00,,,0.00,487.000000,,2013-06-10 03:33:00,
2013-06-09 17:43:00,67.0,54.0,-100.00,WNW,299,7.0,14.0,62,0.00,,,0.00,487.000000,,2013-06-10 03:43:00,
2013-06-09 17:53:00,67.0,54.0,-100.00,WNW,299,7.0,14.0,62,0.00,,,0.00,487.000000,,2013-06-10 03:53:00,
2013-06-09 18:23:00,64.0,54.0,-100.00,SE,127,7.0,14.0,70,0.00,,,0.00,162.000000,,2013-06-10 04:23:00,
2013-06-09 18:33:00,64.0,54.0,-100.00,SE,127,7.0,14.0,70,0.00,,,0.00,162.000000,,2013-06-10 04:33:00,
2013-06-09 18:42:00,64.0,54.0,-100.00,SE,127,7.0,14.0,70,0.00,,,0.00,162.000000,,2013-06-10 04:42:00,
2013-06-09 18:52:00,64.0,54.0,-100.00,SE,127,7.0,14.0,70,0.00,,,0.00,162.000000,,2013-06-10 04:52:00,
2013-06-09 19:22:00,60.0,52.0,-100.00,East,96,12.0,15.0,75,0.00,,,0.00,43.000000,,2013-06-10 05:22:00,
2013-06-09 19:32:00,60.0,52.0,-100.00,East,96,12.0,15.0,75,0.00,,,0.00,43.000000,,2013-06-10 05:32:00,
2013-06-09 19:42:00,60.0,52.0,-100.00,East,96,12.0,15.0,75,0.00,,,0.00,43.000000,,2013-06-10 05:42:00,
2013-06-09 19:52:00,60.0,52.0,-100.00,East,96,12.0,15.0,75,0.00,,,0.00,43.000000,,2013-06-10 05:52:00,
2013-06-09 20:22:00,61.0,51.0,-100.00,East,101,8.0,16.0,69,0.00,,,0.00,0.000000,,2013-06-10 06:22:00,
2013-06-09 20:32:00,61.0,51.0,-100.00,East,101,8.0,16.0,69,0.00,,,0.00,0.000000,,2013-06-10 06:32:00,
2013-06-09 20:42:00,61.0,51.0,-100.00,East,101,8.0,16.0,69,0.00,,,0.00,0.000000,,2013-06-10 06:42:00,
2013-06-09 20:52:00,61.0,51.0,-100.00,East,101,8.0,16.0,69,0.00,,,0.00,0.000000,,2013-06-10 06:52:00,
2013-06-09 21:22:00,60.0,37.0,-100.00,ESE,117,10.0,14.0,43,0.00,,,0.00,0.000000,,2013-06-10 07:22:00,
2013-06-09 21:32:00,60.0,37.0,-100.00,ESE,117,10.0,14.0,43,0.00,,,0.00,0.000000,,2013-06-10 07:32:00,
2013-06-09 21:42:00,60.0,37.0,-100.00,ESE,117,10.0,14.0,43,0.00,,,0.00,0.000000,,2013-06-10 07:42:00,
2013-06-09 21:52:00,60.0,37.0,-100.00,ESE,117,10.0,14.0,43,0.00,,,0.00,0.000000,,2013-06-10 07:52:00,
2013-06-09 22:22:00,62.0,24.0,-100.00,ESE,112,10.0,15.0,23,0.00,,,0.00,0.000000,,2013-06-10 08:22:00,
2013-06-09 22:32:00,62.0,24.0,-100.00,ESE,112,10.0,15.0,23,0.00,,,0.00,0.000000,,2013-06-10 08:32:00,
2013-06-09 22:42:00,62.0,24.0,-100.00,ESE,112,10.0,15.0,23,0.00,,,0.00,0.000000,,2013-06-10 08:42:00,
2013-06-09 22:52:00,62.0,24.0,-100.00,ESE,112,10.0,15.0,23,0.00,,,0.00,0.000000,,2013-06-10 08:52:00,
2013-06-09 23:22:00,59.0,22.0,-100.00,ESE,112,9.0,15.0,24,0.00,,,0.00,0.000000,,2013-06-10 09:22:00,
2013-06-09 23:32:00,59.0,22.0,-100.00,ESE,112,9.0,15.0,24,0.00,,,0.00,0.000000,,2013-06-10 09:32:00,
2013-06-09 23:42:00,59.0,22.0,-100.00,ESE,112,9.0,15.0,24,0.00,,,0.00,0.000000,,2013-06-10 09:42:00,
2013-06-09 23:53:00,59.0,22.0,-100.00,ESE,112,9.0,15.0,24,0.00,,,0.00,0.000000,,2013-06-10 09:53:00,